EW4487 Le Castellet FR current weather conditions

sailwx.info

Wind from 257 at 2 knots gusting 6

Air temperature 15.0° C
Dewpoint 9.6° C

Last reported at 2019-Dec-06 15:01 UTC.
Time now 2019-Dec-06 15:17 UTC

Location: N 43°13' E 005°47'.
View on Google Maps.

See reports from other nearby stations

  
Tides and Currents Weather Stations Pressure Air Temp Water Temp Dewpoint Dewpoint Depression Visibility Wind Speed Wind Dir Waves Ship Positions
date/time (UTC)wind fromknots sea level pressurealtimeterstation pressurevisibilityair tempwater tempwave heightnotes
2019-Dec-06 15:01 257 2 gusting 6 15.0
2019-Dec-06 14:46 257 2 gusting 6 15.0
2019-Dec-06 14:30 259 2 gusting 6 15.6
2019-Dec-06 14:16 258 3 gusting 6 16.7
2019-Dec-06 14:01 270 3 gusting 6 17.2
2019-Dec-06 13:45 275 2 gusting 7 16.7
2019-Dec-06 13:30 275 2 gusting 6 16.7
2019-Dec-06 13:15 275 3 gusting 6 16.1
2019-Dec-06 13:00 275 4 gusting 6 16.1
2019-Dec-06 12:45 275 3 gusting 6 16.7
2019-Dec-06 12:30 277 2 gusting 6 16.7
2019-Dec-06 12:15 186 4 gusting 6 16.7
2019-Dec-06 12:02 178 3 gusting 6 16.1
2019-Dec-06 11:45 134 2 gusting 4 16.7
2019-Dec-06 11:30 134 0 gusting 4 16.1
2019-Dec-06 11:15 134 2 gusting 4 16.1
2019-Dec-06 11:00 134 2 gusting 4 15.6
2019-Dec-06 10:45 134 1 gusting 4 15.0
2019-Dec-06 10:30 134 13.9
2019-Dec-06 10:17 134 13.3
2019-Dec-06 10:02 134 12.8
2019-Dec-06 09:46 134 11.7
2019-Dec-06 09:31 134 11.1
2019-Dec-06 09:17 134 10.6
2019-Dec-06 09:01 132 10.0
2019-Dec-06 08:45 132 9.4
2019-Dec-06 08:31 132 8.9
2019-Dec-06 08:16 132 8.3
2019-Dec-06 08:01 132 7.8
2019-Dec-06 07:46 132 7.2
2019-Dec-06 07:31 132 0 gusting 3 6.7
2019-Dec-06 07:16 132 6.7
2019-Dec-06 07:01 132 6.1
2019-Dec-06 06:46 132 6.1
2019-Dec-06 06:30 132 6.7
2019-Dec-06 06:16 132 6.7
2019-Dec-06 06:00 132 7.2
2019-Dec-06 05:46 132 7.8
2019-Dec-06 05:31 132 3 gusting 5 8.3
2019-Dec-06 05:16 153 7.8
2019-Dec-06 05:01 153 7.8
2019-Dec-06 04:45 153 8.3
2019-Dec-06 04:30 153 8.9
2019-Dec-06 04:16 153 9.4
2019-Dec-06 04:00 153 10.0
2019-Dec-06 03:45 153 11.1
2019-Dec-06 03:30 156 11.7
2019-Dec-06 03:15 159 0 gusting 7 11.1
2019-Dec-06 03:00 100 0 gusting 5 10.6
2019-Dec-06 02:45 099 10.0
2019-Dec-06 02:30 099 10.6
2019-Dec-06 02:15 100 10.0
2019-Dec-06 02:00 099 0 gusting 4 10.6
2019-Dec-06 01:45 099 2 gusting 5 11.1
2019-Dec-06 01:30 099 12.2
2019-Dec-06 01:16 099 12.8
2019-Dec-06 01:02 120 5 gusting 10 12.2
2019-Dec-06 00:47 121 12.8
2019-Dec-06 00:31 098 2 gusting 6 12.8
2019-Dec-06 00:17 099 3 gusting 8 12.2
2019-Dec-06 00:01 126 12.2
2019-Dec-05 23:46 106 1 gusting 6 12.8
2019-Dec-05 23:31 128 6 gusting 11 12.2
2019-Dec-05 23:16 062 1 gusting 7 12.2
2019-Dec-05 23:01 106 6 gusting 12 12.2
2019-Dec-05 22:46 071 0 gusting 4 11.7
2019-Dec-05 22:32 071 1 gusting 5 11.7
2019-Dec-05 22:16 347 1 gusting 6 11.7
2019-Dec-05 22:01 210 2 gusting 10 12.2
2019-Dec-05 21:46 200 2 gusting 6 12.2
2019-Dec-05 21:31 056 2 gusting 10 12.8
2019-Dec-05 21:16 047 0 gusting 12 12.8
2019-Dec-05 21:01 331 2 gusting 6 12.8
2019-Dec-05 20:45 192 2 gusting 8 12.8
2019-Dec-05 20:16 163 0 gusting 6 12.8
2019-Dec-05 20:00 157 13.3
2019-Dec-05 19:46 155 1 gusting 5 12.8
2019-Dec-05 19:31 156 3 gusting 6 12.8
2019-Dec-05 19:16 261 12.2
2019-Dec-05 19:01 009 12.2
2019-Dec-05 18:46 005 12.8
2019-Dec-05 18:31 005 12.8
2019-Dec-05 18:15 360 12.8
2019-Dec-05 18:00 351 2 gusting 6 12.8
2019-Dec-05 17:45 026 12.8
2019-Dec-05 17:30 034 13.3
2019-Dec-05 17:15 015 3 gusting 8 13.3
2019-Dec-05 17:00 213 2 gusting 6 13.3
2019-Dec-05 16:45 193 13.3
2019-Dec-05 16:30 192 1 gusting 5 12.8
2019-Dec-05 16:15 184 13.3
2019-Dec-05 16:00 086 0 gusting 4 13.3
2019-Dec-05 15:45 086 0 gusting 4 13.3
2019-Dec-05 15:30 087 13.9
2019-Dec-05 15:15 080 2 gusting 7 13.9
2019-Dec-05 15:00 140 2 gusting 9 14.4
2019-Dec-05 14:45 100 4 gusting 13 13.9
2019-Dec-05 14:30 087 1 gusting 13 13.9
2019-Dec-05 14:15 062 6 gusting 13 14.4
2019-Dec-05 14:00 055 5 gusting 13 14.4
2019-Dec-05 13:45 078 7 gusting 19 15.0
2019-Dec-05 13:30 053 1 gusting 10 15.0
2019-Dec-05 13:16 175 3 gusting 10 15.6
2019-Dec-05 13:00 074 0 gusting 6 15.6
2019-Dec-05 12:45 077 15.6
2019-Dec-05 12:30 077 1 gusting 5 15.0
2019-Dec-05 12:15 078 14.4
2019-Dec-05 12:00 350 1 gusting 12 14.4
2019-Dec-05 11:45 140 4 gusting 9 14.4
2019-Dec-05 11:32 093 1 gusting 6 14.4
2019-Dec-05 11:17 076 2 gusting 10 14.4
2019-Dec-05 11:02 061 4 gusting 10 14.4
2019-Dec-05 10:46 071 0 gusting 12 14.4
2019-Dec-05 10:31 087 3 gusting 11 14.4
2019-Dec-05 10:16 067 4 gusting 16 14.4
2019-Dec-05 10:01 082 3 gusting 13 14.4
2019-Dec-05 09:46 085 6 gusting 11 14.4
2019-Dec-05 09:31 096 5 gusting 9 13.9
2019-Dec-05 09:17 084 2 gusting 10 14.4
2019-Dec-05 09:01 092 6 gusting 12 13.9
2019-Dec-05 08:47 088 6 gusting 15 13.9
2019-Dec-05 08:31 096 5 gusting 18 13.9
2019-Dec-05 08:16 103 6 gusting 11 13.3
2019-Dec-05 08:01 102 3 gusting 16 13.3
2019-Dec-05 07:45 151 4 gusting 13 13.3
2019-Dec-05 07:31 136 2 gusting 11 13.3
2019-Dec-05 07:16 062 5 gusting 13 13.3
2019-Dec-05 07:01 094 4 gusting 9 13.3
2019-Dec-05 06:46 096 5 gusting 13 13.3
2019-Dec-05 06:31 076 4 gusting 15 13.3
2019-Dec-05 06:15 069 5 gusting 13 13.3
2019-Dec-05 06:01 061 5 gusting 13 12.8
2019-Dec-05 05:46 071 6 gusting 15 12.8
2019-Dec-05 05:31 073 1 gusting 12 12.8
2019-Dec-05 05:16 309 2 gusting 9 12.8
2019-Dec-05 05:01 066 0 gusting 12 12.8
2019-Dec-05 04:46 071 5 gusting 9 12.8
2019-Dec-05 04:30 065 6 gusting 11 13.3
2019-Dec-05 04:15 180 4 gusting 11 12.8
2019-Dec-05 04:00 082 5 gusting 13 13.9
2019-Dec-05 03:45 034 12 gusting 19 13.9
2019-Dec-05 03:30 107 3 gusting 17 13.9
2019-Dec-05 03:15 084 7 gusting 15 13.9
2019-Dec-05 03:01 111 3 gusting 12 13.3
2019-Dec-05 02:45 103 3 gusting 10 12.8
2019-Dec-05 02:30 070 2 gusting 9 12.8
2019-Dec-05 02:15 076 3 gusting 10 12.8
2019-Dec-05 02:00 339 1 gusting 4 12.2
2019-Dec-05 01:46 339 0 gusting 5 12.2
2019-Dec-05 01:31 339 2 gusting 9 12.8
2019-Dec-05 01:17 157 0 gusting 11 12.8
2019-Dec-05 01:02 119 2 gusting 8 12.8
2019-Dec-05 00:47 115 4 gusting 13 13.3
2019-Dec-05 00:31 084 0 gusting 8 12.8
2019-Dec-05 00:18 059 3 gusting 13 12.8
2019-Dec-05 00:01 118 3 gusting 10 11.7
2019-Dec-04 23:47 083 1 gusting 6 11.1
2019-Dec-04 23:32 073 10.6
2019-Dec-04 23:16 073 11.1
2019-Dec-04 23:01 073 0 gusting 5 11.7
2019-Dec-04 22:46 073 12.8
2019-Dec-04 22:30 065 3 gusting 10 12.8
2019-Dec-04 22:16 117 0 gusting 9 12.8
2019-Dec-04 22:01 094 6 gusting 15 13.3
2019-Dec-04 21:46 084 7 gusting 16 13.3
2019-Dec-04 21:31 088 3 gusting 13 13.3
2019-Dec-04 21:16 091 6 gusting 16 13.3
2019-Dec-04 21:00 113 10 gusting 18 13.3
2019-Dec-04 20:46 069 5 gusting 15 13.3
2019-Dec-04 20:31 095 11 gusting 19 13.9
2019-Dec-04 20:16 104 8 gusting 17 13.9
2019-Dec-04 20:01 063 6 gusting 22 13.3
2019-Dec-04 19:45 095 7 gusting 23 13.3
2019-Dec-04 19:31 063 10 gusting 23 13.3
2019-Dec-04 19:16 111 9 gusting 19 13.3
2019-Dec-04 19:00 096 9 gusting 20 13.3
2019-Dec-04 18:45 087 6 gusting 16 13.3
2019-Dec-04 18:30 126 3 gusting 8 12.8
2019-Dec-04 18:15 063 5 gusting 12 12.8
2019-Dec-04 18:01 076 6 gusting 16 12.8
2019-Dec-04 17:45 105 6 gusting 12 12.8
2019-Dec-04 17:30 109 3 gusting 11 12.8
2019-Dec-04 17:16 115 1 gusting 8 12.8
2019-Dec-04 17:00 069 5 gusting 8 12.8
2019-Dec-04 16:45 073 7 gusting 15 12.8
2019-Dec-04 16:31 123 4 gusting 8 12.8
2019-Dec-04 16:16 061 2 gusting 12 12.8
2019-Dec-04 16:02 061 2 gusting 11 12.8
2019-Dec-04 15:46 082 4 gusting 11 13.3
2019-Dec-04 15:30 063 6 gusting 19 13.3
2019-Dec-04 15:15 097 8 gusting 17 13.9
2019-Dec-04 15:00 095 7 gusting 13 13.9